Time;durP1;ratioP1;P1;durP2;ratioP2;P2;SDS_P1;SDS_P2;PMS_P1;PMS_P2;Temp;Humidity;BMP_temperature;BMP_pressure;BME280_temperature;BME280_humidity;BME280_pressure;Samples;Min_cycle;Max_cycle;Signal;HPM_P1;HPM_P2
2023/01/24 00:02:13;;;;;;;52.67;22.95;;;;;;;1.63;100.00;103034.25;5170234;28;20037;-75
2023/01/24 00:04:44;;;;;;;51.00;23.63;;;;;;;1.62;100.00;103038.53;5194338;28;20029;-74
2023/01/24 00:07:14;;;;;;;47.60;21.52;;;;;;;1.61;100.00;103047.06;5182021;28;20029;-75
2023/01/24 00:09:44;;;;;;;50.50;23.02;;;;;;;1.61;100.00;103029.03;5166054;28;20144;-76
2023/01/24 00:12:14;;;;;;;49.25;23.05;;;;;;;1.64;100.00;103020.53;5183366;28;20048;-75
2023/01/24 00:14:45;;;;;;;47.45;21.75;;;;;;;1.65;100.00;103022.31;5174869;28;20077;-75
2023/01/24 00:17:15;;;;;;;53.78;23.85;;;;;;;1.55;100.00;103025.34;5183344;28;20041;-75
2023/01/24 00:19:45;;;;;;;52.78;23.17;;;;;;;1.57;100.00;103029.72;5185081;28;20030;-75
2023/01/24 00:22:16;;;;;;;48.03;22.42;;;;;;;1.59;100.00;103035.81;5187036;28;20052;-75
2023/01/24 00:24:48;;;;;;;47.83;22.05;;;;;;;1.70;100.00;103033.66;5172505;28;20110;-73
2023/01/24 00:27:18;;;;;;;50.72;22.83;;;;;;;1.65;100.00;103028.34;5192150;28;20106;-74
2023/01/24 00:29:48;;;;;;;48.08;22.70;;;;;;;1.65;100.00;103037.75;5188589;28;20101;-75
2023/01/24 00:32:19;;;;;;;51.58;22.52;;;;;;;1.62;100.00;103029.91;5188447;28;20579;-76
2023/01/24 00:34:49;;;;;;;47.40;22.55;;;;;;;1.67;100.00;103025.81;5175262;28;20072;-74
2023/01/24 00:37:20;;;;;;;47.25;22.35;;;;;;;1.56;100.00;103016.81;5171699;28;20479;-75
2023/01/24 00:39:50;;;;;;;46.75;22.85;;;;;;;1.61;100.00;103025.59;5191285;28;20034;-75
2023/01/24 00:42:21;;;;;;;48.80;22.35;;;;;;;1.54;100.00;103026.16;5198435;28;20025;-75
2023/01/24 00:44:51;;;;;;;49.28;22.75;;;;;;;1.53;100.00;103014.97;5192279;28;20487;-74
2023/01/24 00:47:21;;;;;;;50.45;22.25;;;;;;;1.48;100.00;103019.06;5189032;28;20017;-74
2023/01/24 00:49:52;;;;;;;49.35;23.48;;;;;;;1.48;100.00;103028.47;5182700;28;20018;-74
2023/01/24 00:52:22;;;;;;;45.88;21.58;;;;;;;1.60;100.00;103026.41;5195767;28;20049;-74
2023/01/24 00:54:52;;;;;;;52.08;23.30;;;;;;;1.52;100.00;103020.94;5195912;28;20096;-75
2023/01/24 00:57:24;;;;;;;47.53;22.77;;;;;;;1.55;100.00;103023.63;5177903;28;20022;-74
2023/01/24 00:59:54;;;;;;;48.55;21.33;;;;;;;1.55;100.00;103015.03;5184108;28;20116;-75
2023/01/24 01:02:25;;;;;;;50.47;23.05;;;;;;;1.60;100.00;103023.81;5188256;28;20108;-75
2023/01/24 01:04:55;;;;;;;48.22;21.83;;;;;;;1.61;100.00;103033.31;5191359;28;20036;-75
2023/01/24 01:07:25;;;;;;;46.40;22.17;;;;;;;1.67;100.00;103021.56;5186451;28;20029;-75
2023/01/24 01:09:56;;;;;;;47.05;22.35;;;;;;;1.67;100.00;103025.81;5188488;28;20391;-75
2023/01/24 01:12:26;;;;;;;44.63;21.77;;;;;;;1.55;100.00;103031.38;5178064;28;20026;-75
2023/01/24 01:14:56;;;;;;;48.90;22.27;;;;;;;1.51;100.00;103037.22;5196621;28;20029;-76
2023/01/24 01:17:27;;;;;;;48.78;23.05;;;;;;;1.57;100.00;103032.31;5194902;28;20029;-75
2023/01/24 01:19:58;;;;;;;46.22;21.75;;;;;;;1.57;100.00;103034.88;5178729;28;20029;-76
2023/01/24 01:22:28;;;;;;;46.60;22.40;;;;;;;1.60;100.00;103026.41;5183349;28;20427;-76
2023/01/24 01:24:59;;;;;;;49.15;22.48;;;;;;;1.57;100.00;103036.59;5182438;28;20052;-75
2023/01/24 01:27:29;;;;;;;50.47;23.73;;;;;;;1.48;100.00;103037.09;5189200;28;20036;-75
2023/01/24 01:29:59;;;;;;;53.38;24.10;;;;;;;1.51;100.00;103039.81;5199209;28;20025;-76
2023/01/24 01:32:30;;;;;;;52.95;23.65;;;;;;;1.48;100.00;103047.41;5203791;28;20513;-75
2023/01/24 01:35:00;;;;;;;47.33;22.92;;;;;;;1.54;100.00;103037.34;5194781;28;20096;-75
2023/01/24 01:37:30;;;;;;;56.45;24.45;;;;;;;1.46;100.00;103046.47;5183945;28;20022;-76
2023/01/24 01:40:01;;;;;;;52.20;23.02;;;;;;;1.50;100.00;103042.28;5189542;28;20050;-75
2023/01/24 01:42:47;;;;;;;51.75;23.60;;;;;;;1.51;100.00;103037.22;5187196;28;20515;-75
2023/01/24 01:45:32;;;;;;;51.67;24.38;;;;;;;1.51;100.00;103042.38;5180526;28;20022;-75
2023/01/24 01:48:13;;;;;;;52.25;24.05;;;;;;;1.49;100.00;103041.44;5185473;28;20025;-75
2023/01/24 01:50:58;;;;;;;49.55;23.58;;;;;;;1.46;100.00;103043.91;5186632;28;20452;-75
2023/01/24 01:53:38;;;;;;;49.65;23.88;;;;;;;1.47;100.00;103037.94;5170967;28;20380;-75
2023/01/24 01:56:23;;;;;;;48.92;22.83;;;;;;;1.44;100.00;103045.50;5186960;28;20021;-76
2023/01/24 01:58:58;;;;;;;43.63;22.15;;;;;;;1.53;100.00;103045.00;5199279;28;20045;-75
2023/01/24 02:01:30;;;;;;;50.67;22.65;;;;;;;1.56;100.00;103045.16;5176482;28;20491;-76
2023/01/24 02:04:08;;;;;;;49.03;22.58;;;;;;;1.48;100.00;103044.84;5182848;28;20036;-76
2023/01/24 02:06:43;;;;;;;47.97;22.65;;;;;;;1.45;100.00;103042.13;5174962;28;20473;-75
2023/01/24 02:09:16;;;;;;;45.57;21.50;;;;;;;1.55;100.00;103044.25;5193149;28;20033;-75
2023/01/24 02:11:47;;;;;;;48.83;22.45;;;;;;;1.60;100.00;103045.31;5185519;28;20442;-75
2023/01/24 02:17:09;;;;;;;48.50;22.17;;;;;;;1.53;100.00;103050.16;5183474;28;20037;-76
2023/01/24 02:19:55;;;;;;;46.58;21.88;;;;;;;1.51;100.00;103050.09;5172709;28;20484;-76
2023/01/24 02:22:32;;;;;;;;;;;;;;;1.45;100.00;103049.88;5186830;28;20042;-76
2023/01/24 02:25:16;;;;;;;45.70;21.58;;;;;;;1.42;100.00;103042.00;5168974;28;19913;-75
2023/01/24 02:27:46;;;;;;;44.55;21.30;;;;;;;1.41;100.00;103039.38;5164592;28;20026;-75
2023/01/24 02:30:17;;;;;;;46.97;23.05;;;;;;;1.51;100.00;103032.06;5191517;28;20021;-75
2023/01/24 02:32:47;;;;;;;48.53;23.00;;;;;;;1.43;100.00;103041.16;5196113;28;20036;-75
2023/01/24 02:35:31;;;;;;;53.03;23.45;;;;;;;1.47;100.00;103047.34;5194692;28;20407;-76
2023/01/24 02:38:05;;;;;;;47.55;22.95;;;;;;;1.45;100.00;103037.00;5195250;28;20033;-75
2023/01/24 02:40:36;;;;;;;51.55;23.63;;;;;;;1.44;100.00;103042.91;5193067;28;20072;-75
2023/01/24 02:43:10;;;;;;;49.35;22.08;;;;;;;1.46;100.00;103040.44;5192631;28;20056;-75
2023/01/24 02:45:40;;;;;;;48.40;23.63;;;;;;;1.40;100.00;103046.19;5172919;28;20021;-75
2023/01/24 02:48:10;;;;;;;46.38;22.75;;;;;;;1.43;100.00;103042.88;5167231;28;20030;-75
2023/01/24 02:53:30;;;;;;;49.42;22.50;;;;;;;1.49;100.00;103036.28;5182245;28;20288;-76
2023/01/24 02:58:53;;;;;;;47.35;22.42;;;;;;;1.42;100.00;103034.25;5185759;28;20026;-76
2023/01/24 03:01:23;;;;;;;42.35;21.20;;;;;;;1.48;100.00;103039.69;5191627;28;20383;-76
2023/01/24 03:03:55;;;;;;;44.42;22.38;;;;;;;1.43;100.00;103041.16;5192291;28;20034;-75
2023/01/24 03:06:26;;;;;;;43.17;21.45;;;;;;;1.49;100.00;103038.84;5166222;28;20037;-75
2023/01/24 03:08:56;;;;;;;45.88;21.60;;;;;;;1.50;100.00;103048.34;5198916;28;20080;-76
2023/01/24 03:11:26;;;;;;;42.17;21.40;;;;;;;1.46;100.00;103046.47;5194751;28;20025;-76
2023/01/24 03:36:19;;;;;;;42.53;21.48;;;;;;;1.42;100.00;103028.25;5209205;28;20234;-72
2023/01/24 03:41:38;;;;;;;41.92;20.38;;;;;;;1.44;100.00;103017.16;5208492;28;20178;-73
2023/01/24 03:44:08;;;;;;;42.00;21.20;;;;;;;1.37;100.00;103024.63;5209115;28;20025;-72
2023/01/24 03:46:39;;;;;;;45.90;20.42;;;;;;;1.39;100.00;103018.69;5207387;28;20391;-72
2023/01/24 03:49:10;;;;;;;41.70;19.83;;;;;;;1.38;100.00;103027.22;5193880;28;20052;-71
2023/01/24 03:54:29;;;;;;;42.17;20.42;;;;;;;1.45;100.00;103018.94;5212234;28;20028;-72
2023/01/24 03:57:02;;;;;;;41.10;19.77;;;;;;;1.43;100.00;103017.13;5212568;28;20028;-71
2023/01/24 03:59:32;;;;;;;43.25;20.02;;;;;;;1.43;100.00;103027.44;5206767;28;20025;-72
2023/01/24 04:02:02;;;;;;;40.28;19.23;;;;;;;1.37;100.00;103030.63;5210017;28;20044;-72
2023/01/24 04:05:12;;;;;;;38.55;19.10;;;;;;;1.38;100.00;103029.81;5211414;28;20507;-72
2023/01/24 04:07:23;;;;;;;40.15;19.70;;;;;;;1.37;100.00;103032.34;5212364;28;20086;-71
2023/01/24 04:09:53;;;;;;;43.70;20.42;;;;;;;1.39;100.00;103030.69;5209425;28;20037;-72
2023/01/24 04:12:24;;;;;;;37.92;18.65;;;;;;;1.36;100.00;103031.44;5203920;28;20029;-71
2023/01/24 04:14:55;;;;;;;34.97;18.15;;;;;;;1.43;100.00;103028.28;5207407;28;20056;-72
2023/01/24 04:17:25;;;;;;;37.83;19.15;;;;;;;1.42;100.00;103028.25;5201795;28;20482;-71
2023/01/24 04:19:56;;;;;;;35.05;17.30;;;;;;;1.42;100.00;103031.69;5188449;28;20449;-71
2023/01/24 04:22:26;;;;;;;38.65;17.85;;;;;;;1.44;100.00;103031.75;5190329;28;20025;-71
2023/01/24 04:24:56;;;;;;;34.20;16.42;;;;;;;1.47;100.00;103025.03;5204699;28;20045;-71
2023/01/24 04:27:27;;;;;;;30.80;16.10;;;;;;;1.48;100.00;103024.22;5206907;28;20048;-71
2023/01/24 04:29:57;;;;;;;32.97;16.55;;;;;;;1.45;100.00;103029.25;5203596;28;20660;-71
2023/01/24 04:32:28;;;;;;;29.92;16.05;;;;;;;1.50;100.00;103027.75;5207382;28;20108;-72
2023/01/24 04:34:59;;;;;;;34.35;17.35;;;;;;;1.43;100.00;103037.72;5206726;28;20128;-71
2023/01/24 04:37:30;;;;;;;31.95;16.85;;;;;;;1.45;100.00;103039.56;5206105;28;20454;-72
2023/01/24 04:40:01;;;;;;;36.28;17.48;;;;;;;1.49;100.00;103037.97;5208626;28;20040;-71
2023/01/24 04:42:31;;;;;;;33.80;17.67;;;;;;;1.55;100.00;103031.38;5212040;28;20021;-70
2023/01/24 04:45:01;;;;;;;31.77;16.92;;;;;;;1.44;100.00;103031.75;5207305;28;20048;-71
2023/01/24 04:47:32;;;;;;;32.33;17.05;;;;;;;1.44;100.00;103042.91;5205768;28;20045;-72
2023/01/24 04:50:02;;;;;;;33.03;17.17;;;;;;;1.37;100.00;103025.47;5193742;28;20394;-71
2023/01/24 04:52:33;;;;;;;34.58;17.73;;;;;;;1.37;100.00;103030.63;5206878;28;20614;-71
2023/01/24 04:55:03;;;;;;;35.45;17.50;;;;;;;1.44;100.00;103027.47;5203514;28;20040;-71
2023/01/24 04:57:34;;;;;;;30.95;16.70;;;;;;;1.45;100.00;103018.06;5209317;28;20410;-72
2023/01/24 05:00:05;;;;;;;31.63;15.77;;;;;;;1.44;100.00;103026.59;5208533;28;20072;-71
2023/01/24 05:02:37;;;;;;;30.27;16.17;;;;;;;1.50;100.00;103022.59;5206024;28;20052;-71
2023/01/24 05:05:07;;;;;;;29.85;15.90;;;;;;;1.52;100.00;103013.22;5211022;28;20036;-71
2023/01/24 05:07:38;;;;;;;30.52;15.38;;;;;;;1.53;100.00;103022.69;5211835;28;20025;-71
2023/01/24 05:10:09;;;;;;;31.25;15.75;;;;;;;1.52;100.00;103022.63;5208541;28;20387;-71
2023/01/24 05:12:39;;;;;;;29.50;15.15;;;;;;;1.52;100.00;103027.78;5201974;28;20229;-71
2023/01/24 05:15:09;;;;;;;27.40;14.65;;;;;;;1.58;100.00;103021.19;5185766;28;20026;-71
2023/01/24 05:17:43;;;;;;;31.25;15.35;;;;;;;1.51;100.00;103023.44;5205126;28;20394;-72
2023/01/24 05:20:13;;;;;;;28.95;14.75;;;;;;;1.50;100.00;103025.16;5208767;28;20041;-71
2023/01/24 05:22:46;;;;;;;30.40;14.60;;;;;;;1.48;100.00;103019.06;5204146;28;20086;-71
2023/01/24 05:25:17;;;;;;;25.23;13.73;;;;;;;1.50;100.00;103027.75;5212846;28;20112;-71
2023/01/24 05:27:47;;;;;;;28.92;14.63;;;;;;;1.61;100.00;103026.44;5208562;28;20104;-71
2023/01/24 05:30:17;;;;;;;27.90;13.52;;;;;;;1.49;100.00;103030.25;5202285;28;20230;-71
2023/01/24 05:32:48;;;;;;;27.23;13.80;;;;;;;1.50;100.00;103022.59;5209801;28;20030;-71
2023/01/24 05:35:20;;;;;;;25.77;12.85;;;;;;;1.53;100.00;103033.00;5191788;28;20079;-71
2023/01/24 05:37:51;;;;;;;24.50;13.38;;;;;;;1.47;100.00;103044.75;5202953;28;20033;-71
2023/01/24 05:40:21;;;;;;;28.35;13.52;;;;;;;1.44;100.00;103036.91;5212542;28;20028;-72
2023/01/24 05:42:51;;;;;;;24.98;13.30;;;;;;;1.45;100.00;103039.56;5200621;28;20028;-72
2023/01/24 05:45:21;;;;;;;23.23;12.45;;;;;;;1.46;100.00;103041.31;5203514;28;20088;-72
2023/01/24 05:47:52;;;;;;;16.83;9.18;;;;;;;1.45;100.00;103049.88;5208881;28;20026;-71
2023/01/24 05:50:22;;;;;;;21.65;11.07;;;;;;;1.49;100.00;103046.59;5206708;28;20442;-71
2023/01/24 05:52:52;;;;;;;23.23;12.85;;;;;;;1.50;100.00;103050.94;5183684;28;20120;-71
2023/01/24 05:55:22;;;;;;;23.25;12.48;;;;;;;1.57;100.00;103045.19;5207534;28;20025;-71
2023/01/24 05:57:53;;;;;;;22.17;13.00;;;;;;;1.53;100.00;103050.16;5208806;28;20034;-70
2023/01/24 06:00:23;;;;;;;27.60;13.93;;;;;;;1.49;100.00;103051.75;5191351;28;20025;-71
2023/01/24 06:02:54;;;;;;;23.63;12.52;;;;;;;1.49;100.00;103054.31;5204690;28;20051;-71
2023/01/24 06:05:24;;;;;;;22.98;11.35;;;;;;;1.59;100.00;103056.44;5213094;28;20036;-72
2023/01/24 06:07:55;;;;;;;20.25;10.13;;;;;;;1.53;100.00;103052.72;5207827;28;20029;-71
2023/01/24 06:10:25;;;;;;;19.42;10.40;;;;;;;1.52;100.00;103056.13;5211157;28;20371;-71
2023/01/24 06:13:02;;;;;;;15.48;7.70;;;;;;;1.63;100.00;103055.75;5262727;27;20518;-72
2023/01/24 06:15:32;;;;;;;10.90;6.22;;;;;;;1.59;100.00;103064.16;5264802;28;20052;-72
2023/01/24 06:18:03;;;;;;;13.98;8.20;;;;;;;1.61;100.00;103071.97;5271511;28;20031;-72
2023/01/24 06:20:33;;;;;;;14.32;8.65;;;;;;;1.58;100.00;103072.72;5259361;28;20028;-72
2023/01/24 06:23:06;;;;;;;19.33;8.88;;;;;;;1.49;100.00;103076.63;5263135;28;20490;-72
2023/01/24 06:25:37;;;;;;;13.18;7.70;;;;;;;1.59;100.00;103074.47;5285290;22;20080;-73
2023/01/24 06:28:09;;;;;;;12.13;7.57;;;;;;;1.57;100.00;103080.41;5189033;28;20163;-75
2023/01/24 06:30:42;;;;;;;13.05;7.15;;;;;;;1.57;100.00;103086.41;5186640;28;20083;-76
2023/01/24 06:33:36;;;;;;;14.65;7.47;;;;;;;1.65;100.00;103094.47;5183513;28;20052;-74
2023/01/24 06:36:23;;;;;;;14.93;8.15;;;;;;;1.67;100.00;103083.41;5196168;28;20398;-76
2023/01/24 06:38:53;;;;;;;15.13;7.35;;;;;;;1.59;100.00;103084.78;5198214;28;20099;-75
2023/01/24 06:41:24;;;;;;;13.00;7.03;;;;;;;1.61;100.00;103088.28;5188709;28;20017;-76
2023/01/24 06:43:54;;;;;;;9.05;5.40;;;;;;;1.63;100.00;103084.09;5191329;28;20096;-75
2023/01/24 06:46:25;;;;;;;9.95;5.15;;;;;;;1.54;100.00;103088.88;5185230;28;20038;-76
2023/01/24 06:48:55;;;;;;;12.13;6.00;;;;;;;1.53;100.00;103094.84;5198240;28;20048;-76
2023/01/24 06:51:25;;;;;;;9.95;5.50;;;;;;;1.52;100.00;103103.41;5192407;28;20406;-75
2023/01/24 06:53:56;;;;;;;9.27;5.85;;;;;;;1.53;100.00;103093.94;5178565;28;20026;-75
2023/01/24 06:56:26;;;;;;;8.13;4.70;;;;;;;1.48;100.00;103104.09;5198120;28;20025;-75
2023/01/24 06:58:56;;;;;;;9.63;5.18;;;;;;;1.64;100.00;103097.84;5187694;28;20061;-75
2023/01/24 07:01:28;;;;;;;10.38;5.47;;;;;;;1.46;100.00;103089.38;5188959;28;20030;-75
2023/01/24 07:03:58;;;;;;;11.35;5.90;;;;;;;1.47;100.00;103094.59;5195205;28;20033;-76
2023/01/24 07:06:28;;;;;;;8.50;4.75;;;;;;;1.46;100.00;103098.00;5196519;28;20442;-76
2023/01/24 07:08:59;;;;;;;7.28;4.45;;;;;;;1.57;100.00;103096.72;5194073;28;20041;-75
2023/01/24 07:11:29;;;;;;;6.60;3.70;;;;;;;1.48;100.00;103093.78;5187297;28;20237;-76
2023/01/24 07:14:00;;;;;;;6.72;4.00;;;;;;;1.51;100.00;103103.31;5190733;28;20014;-76
2023/01/24 07:16:30;;;;;;;7.68;4.60;;;;;;;1.47;100.00;103107.47;5195050;28;20080;-76
2023/01/24 07:19:00;;;;;;;8.48;4.88;;;;;;;1.46;100.00;103098.00;5182884;28;20105;-76
2023/01/24 07:21:33;;;;;;;11.15;5.68;;;;;;;1.38;100.00;103104.50;5189201;28;20114;-73
2023/01/24 07:24:12;;;;;;;9.85;6.03;;;;;;;1.36;100.00;103110.41;5184055;28;20033;-76
2023/01/24 07:26:43;;;;;;;9.40;5.90;;;;;;;1.35;100.00;103109.53;5183575;28;20040;-75
2023/01/24 07:29:13;;;;;;;9.82;6.15;;;;;;;1.46;100.00;103104.84;5175026;28;20033;-75
2023/01/24 07:31:44;;;;;;;10.70;6.28;;;;;;;1.44;100.00;103114.19;5174951;28;20573;-75
2023/01/24 07:34:16;;;;;;;10.20;6.38;;;;;;;1.43;100.00;103117.59;5176361;28;20035;-75
2023/01/24 07:36:47;;;;;;;8.93;5.65;;;;;;;1.46;100.00;103108.31;5178055;28;20038;-76
2023/01/24 07:39:17;;;;;;;10.13;6.25;;;;;;;1.44;100.00;103107.31;5180577;28;20025;-75
2023/01/24 07:41:47;;;;;;;11.27;6.03;;;;;;;1.53;100.00;103114.56;5171742;28;20025;-74
2023/01/24 07:44:18;;;;;;;9.60;6.05;;;;;;;1.52;100.00;103113.69;5174138;28;20087;-76
2023/01/24 07:46:48;;;;;;;10.15;5.47;;;;;;;1.50;100.00;103117.91;5179309;28;20376;-75
2023/01/24 07:49:18;;;;;;;9.05;5.60;;;;;;;1.68;100.00;103123.81;5180701;28;20041;-76
2023/01/24 07:51:48;;;;;;;10.20;5.47;;;;;;;1.53;100.00;103127.44;5177527;28;20537;-75
2023/01/24 07:54:19;;;;;;;9.07;5.28;;;;;;;1.53;100.00;103123.19;5179217;28;20042;-76
2023/01/24 07:56:51;;;;;;;10.63;5.80;;;;;;;1.55;100.00;103131.84;5183529;28;20030;-76
2023/01/24 07:59:21;;;;;;;8.90;5.20;;;;;;;1.50;100.00;103130.78;5177228;28;20025;-75
2023/01/24 08:01:51;;;;;;;8.65;4.88;;;;;;;1.58;100.00;103131.13;5177620;28;20026;-76
2023/01/24 08:04:22;;;;;;;8.48;5.10;;;;;;;1.54;100.00;103137.81;5176881;28;20100;-76
2023/01/24 08:09:41;;;;;;;9.95;5.05;;;;;;;1.50;100.00;103141.09;5174381;28;20065;-76
2023/01/24 08:12:12;;;;;;;7.82;4.82;;;;;;;1.47;100.00;103153.88;5176679;28;20027;-76
2023/01/24 08:14:42;;;;;;;7.53;5.05;;;;;;;1.66;100.00;103143.50;5175257;28;20474;-76
2023/01/24 08:17:12;;;;;;;12.95;5.43;;;;;;;1.58;100.00;103139.72;5175949;28;20029;-74
2023/01/24 08:19:43;;;;;;;8.82;5.13;;;;;;;1.55;100.00;103142.16;5178028;28;20038;-76
2023/01/24 08:22:13;;;;;;;8.32;5.05;;;;;;;1.53;100.00;103141.22;5176408;28;20026;-76
2023/01/24 08:24:43;;;;;;;7.20;4.60;;;;;;;1.43;100.00;103144.22;5181583;28;20052;-76
2023/01/24 08:27:13;;;;;;;7.78;5.18;;;;;;;1.43;100.00;103144.22;5181471;28;20180;-76
2023/01/24 08:29:44;;;;;;;7.82;5.00;;;;;;;1.38;100.00;103148.31;5177586;28;20022;-75
2023/01/24 08:32:14;;;;;;;11.45;5.80;;;;;;;1.34;100.00;103149.00;5169781;28;20029;-76
2023/01/24 08:34:44;;;;;;;8.07;5.15;;;;;;;1.42;100.00;103146.75;5177613;28;20032;-76
2023/01/24 08:37:15;;;;;;;8.40;5.32;;;;;;;1.50;100.00;103141.09;5180602;28;20100;-75
2023/01/24 08:39:45;;;;;;;10.90;6.18;;;;;;;1.43;100.00;103145.94;5181430;28;20064;-76
2023/01/24 08:42:16;;;;;;;8.20;5.35;;;;;;;1.49;100.00;103146.19;5170035;28;20018;-76
2023/01/24 08:44:47;;;;;;;10.02;5.75;;;;;;;1.54;100.00;103150.72;5178429;28;20426;-76
2023/01/24 08:47:17;;;;;;;9.10;5.53;;;;;;;1.43;100.00;103141.63;5171454;28;20038;-76
2023/01/24 08:49:48;;;;;;;9.82;5.95;;;;;;;1.39;100.00;103136.31;5179685;28;20573;-75
2023/01/24 08:52:18;;;;;;;8.98;5.82;;;;;;;1.41;100.00;103139.84;5174678;28;20278;-76
2023/01/24 08:54:48;;;;;;;8.32;5.78;;;;;;;1.37;100.00;103146.53;5169443;28;20423;-73
2023/01/24 08:57:18;;;;;;;9.27;5.70;;;;;;;1.45;100.00;103142.63;5181453;28;20048;-76
2023/01/24 08:59:49;;;;;;;8.68;5.50;;;;;;;1.56;100.00;103151.66;5170608;28;20090;-75
2023/01/24 09:02:19;;;;;;;9.38;5.47;;;;;;;1.41;100.00;103145.00;5173219;28;20022;-77
2023/01/24 09:04:49;;;;;;;10.57;6.05;;;;;;;1.49;100.00;103149.66;5179776;28;20395;-76
2023/01/24 09:07:20;;;;;;;9.43;5.85;;;;;;;1.46;100.00;103149.53;5180151;28;20033;-76
2023/01/24 09:09:50;;;;;;;8.50;5.82;;;;;;;1.44;100.00;103156.28;5179364;28;20036;-76
2023/01/24 09:12:20;;;;;;;9.70;5.72;;;;;;;1.53;100.00;103159.25;5166644;28;20383;-76
2023/01/24 09:14:50;;;;;;;11.25;6.53;;;;;;;1.52;100.00;103160.06;5177402;28;20034;-76
2023/01/24 09:17:21;;;;;;;8.57;5.95;;;;;;;1.50;100.00;103160.81;5176950;28;20040;-76
2023/01/24 09:19:51;;;;;;;9.30;6.38;;;;;;;1.48;100.00;103160.78;5181601;28;20177;-76
2023/01/24 09:22:21;;;;;;;10.77;6.43;;;;;;;1.55;100.00;103165.34;5169726;28;20498;-76
2023/01/24 09:24:52;;;;;;;10.48;6.60;;;;;;;1.49;100.00;103170.25;5181551;28;20033;-75
2023/01/24 09:27:22;;;;;;;14.88;6.85;;;;;;;1.49;100.00;103164.22;5181869;28;20426;-76
2023/01/24 09:29:52;;;;;;;10.25;6.70;;;;;;;1.50;100.00;103164.28;5173478;28;20021;-75
2023/01/24 09:32:22;;;;;;;9.43;6.70;;;;;;;1.48;100.00;103160.78;5169844;28;20072;-75
2023/01/24 09:34:53;;;;;;;13.05;6.45;;;;;;;1.45;100.00;103172.63;5173333;28;20545;-74
2023/01/24 09:37:23;;;;;;;9.85;6.07;;;;;;;1.46;100.00;103169.25;5182712;28;20030;-75
2023/01/24 09:39:55;;;;;;;10.63;6.53;;;;;;;1.52;100.00;103165.22;5175247;28;20454;-75
2023/01/24 09:42:29;;;;;;;10.02;6.30;;;;;;;1.50;100.00;103174.59;5167843;28;20026;-75
2023/01/24 09:45:23;;;;;;;10.10;6.05;;;;;;;1.52;100.00;103177.22;5178185;28;20036;-76
2023/01/24 09:47:58;;;;;;;10.32;6.25;;;;;;;1.52;100.00;103175.53;5171378;28;20037;-75
2023/01/24 09:50:52;;;;;;;11.20;6.93;;;;;;;1.49;100.00;103170.25;5173359;28;20235;-76
2023/01/24 09:53:35;;;;;;;11.85;6.80;;;;;;;1.48;100.00;103162.44;5176446;28;20052;-76
2023/01/24 09:56:11;;;;;;;10.60;6.53;;;;;;;1.46;100.00;103162.41;5170118;28;20061;-76
2023/01/24 09:58:43;;;;;;;9.32;6.03;;;;;;;1.50;100.00;103171.13;5173976;28;20172;-75
2023/01/24 10:01:14;;;;;;;9.27;6.38;;;;;;;1.45;100.00;103170.94;5174256;28;20021;-76
2023/01/24 10:03:46;;;;;;;9.48;6.25;;;;;;;1.49;100.00;103164.22;5175915;28;20055;-77
2023/01/24 10:06:22;;;;;;;12.25;7.55;;;;;;;1.57;100.00;103161.13;5179766;28;20021;-76
2023/01/24 10:09:02;;;;;;;14.10;9.43;;;;;;;1.47;100.00;103165.84;5181176;28;20055;-75
2023/01/24 10:11:47;;;;;;;19.35;10.77;;;;;;;1.59;100.00;103162.09;5172545;28;20081;-77
2023/01/24 10:14:40;;;;;;;18.35;11.50;;;;;;;1.73;100.00;103163.53;5170007;28;20176;-76
2023/01/24 10:17:37;;;;;;;18.67;11.32;;;;;;;1.64;100.00;103165.75;5173939;28;20026;-75
2023/01/24 10:20:35;;;;;;;12.80;7.78;;;;;;;1.82;100.00;103166.50;5176881;28;20046;-75
2023/01/24 10:23:14;;;;;;;18.23;9.70;;;;;;;1.72;100.00;103163.50;5171866;28;20525;-75
2023/01/24 10:26:09;;;;;;;20.98;11.00;;;;;;;1.67;100.00;103155.56;5173340;28;20050;-76
2023/01/24 10:28:43;;;;;;;14.10;7.45;;;;;;;1.62;100.00;103154.50;5177414;28;20053;-76
2023/01/24 10:31:19;;;;;;;10.15;6.57;;;;;;;1.66;100.00;103151.22;5167406;28;20027;-75
2023/01/24 10:33:57;;;;;;;11.15;6.43;;;;;;;1.70;100.00;103150.53;5172073;28;20026;-76
2023/01/24 10:36:45;;;;;;;8.95;5.82;;;;;;;1.69;100.00;103146.19;5161466;28;20057;-75
2023/01/24 10:39:16;;;;;;;11.73;6.78;;;;;;;1.71;100.00;103151.44;5179252;28;20030;-76
2023/01/24 10:41:46;;;;;;;11.43;7.10;;;;;;;1.74;100.00;103147.25;5176414;28;20462;-75
2023/01/24 10:44:34;;;;;;;8.90;5.80;;;;;;;1.59;100.00;103151.78;5176598;28;20022;-76
2023/01/24 10:47:36;;;;;;;9.55;6.53;;;;;;;1.56;100.00;103149.06;5172080;28;20026;-75
2023/01/24 10:50:09;;;;;;;11.68;5.90;;;;;;;1.68;100.00;103139.28;5179573;28;20488;-75
2023/01/24 10:52:39;;;;;;;9.15;5.32;;;;;;;1.68;100.00;103139.28;5175009;28;20037;-76
2023/01/24 10:55:34;;;;;;;9.82;6.00;;;;;;;1.64;100.00;103141.66;5163898;28;20026;-75
2023/01/24 10:58:25;;;;;;;8.85;5.65;;;;;;;1.67;100.00;103139.22;5179244;28;20407;-75
2023/01/24 11:00:59;;;;;;;13.23;6.07;;;;;;;1.69;100.00;103138.47;5182380;28;20119;-75
2023/01/24 11:03:34;;;;;;;10.33;6.00;;;;;;;1.74;100.00;103142.09;5179558;28;20034;-74
2023/01/24 11:06:20;;;;;;;10.85;6.65;;;;;;;1.72;100.00;103145.47;5174733;28;20025;-76
2023/01/24 11:09:04;;;;;;;11.40;6.50;;;;;;;1.71;100.00;103136.81;5176573;28;20034;-74
2023/01/24 11:11:42;;;;;;;14.02;5.93;;;;;;;1.69;100.00;103138.47;5187627;28;20060;-75
2023/01/24 11:14:19;;;;;;;16.90;8.65;;;;;;;1.72;100.00;103132.56;5174407;28;20038;-76
2023/01/24 11:16:52;;;;;;;16.95;9.38;;;;;;;1.72;100.00;103135.16;5178909;28;20173;-75
2023/01/24 11:19:30;;;;;;;15.90;8.95;;;;;;;1.81;100.00;103139.84;5176369;28;20053;-75
2023/01/24 11:22:03;;;;;;;14.32;8.60;;;;;;;1.81;100.00;103137.25;5179011;28;20037;-75
2023/01/24 11:24:42;;;;;;;9.98;5.93;;;;;;;1.80;100.00;103129.47;5176386;28;20109;-76
2023/01/24 11:27:19;;;;;;;10.23;5.45;;;;;;;1.87;100.00;103127.22;5174108;28;20114;-73
2023/01/24 11:30:18;;;;;;;9.73;5.93;;;;;;;1.88;100.00;103134.13;5178235;28;20038;-76
2023/01/24 11:33:10;;;;;;;11.23;6.00;;;;;;;1.72;100.00;103127.41;5181109;28;20034;-75
2023/01/24 11:35:46;;;;;;;10.90;6.00;;;;;;;1.77;100.00;103126.75;5172596;28;20457;-75
2023/01/24 11:38:40;;;;;;;11.35;6.13;;;;;;;1.86;100.00;103129.72;5184864;28;20029;-75
2023/01/24 11:41:30;;;;;;;8.93;5.63;;;;;;;1.78;100.00;103129.41;5174824;28;20026;-73
2023/01/24 11:44:31;;;;;;;14.15;7.50;;;;;;;1.77;100.00;103121.59;5173594;28;20097;-76
2023/01/24 11:47:25;;;;;;;10.10;6.00;;;;;;;1.77;100.00;103121.59;5171205;28;20030;-76
2023/01/24 11:50:06;;;;;;;12.00;6.65;;;;;;;1.73;100.00;103127.47;5174859;28;20116;-76
2023/01/24 11:52:58;;;;;;;12.40;6.82;;;;;;;1.79;100.00;103120.00;5182041;28;20034;-75
2023/01/24 11:55:59;;;;;;;11.55;5.85;;;;;;;1.70;100.00;103119.59;5177023;28;20493;-75
2023/01/24 11:58:35;;;;;;;11.45;6.10;;;;;;;1.68;100.00;103116.09;5170224;28;20163;-75
2023/01/24 12:01:28;;;;;;;10.27;5.97;;;;;;;1.63;100.00;103112.47;5175717;28;20040;-76
2023/01/24 12:04:17;;;;;;;10.50;5.70;;;;;;;1.78;100.00;103116.53;5177043;28;20026;-75
2023/01/24 12:07:06;;;;;;;13.20;6.85;;;;;;;1.82;100.00;103104.66;5172878;28;20030;-75
2023/01/24 12:09:55;;;;;;;11.85;6.18;;;;;;;1.83;100.00;103106.41;5181072;28;20437;-76
2023/01/24 12:12:43;;;;;;;10.68;5.95;;;;;;;1.71;100.00;103095.59;5175626;28;20101;-75
2023/01/24 12:15:19;;;;;;;12.18;6.18;;;;;;;1.77;100.00;103100.97;5176105;28;20037;-75
2023/01/24 12:18:01;;;;;;;10.20;6.03;;;;;;;1.71;100.00;103095.59;5176702;28;20033;-75
2023/01/24 12:20:34;;;;;;;9.68;5.97;;;;;;;1.60;100.00;103085.66;5182711;28;20026;-75
2023/01/24 12:23:19;;;;;;;12.15;6.40;;;;;;;1.70;100.00;103088.69;5175524;28;20084;-75
2023/01/24 12:25:52;;;;;;;10.27;6.30;;;;;;;1.69;100.00;103080.88;5201725;23;20139;-71